Time;durP1;ratioP1;P1;durP2;ratioP2;P2;SDS_P1;SDS_P2;PMS_P1;PMS_P2;Temp;Humidity;BMP_temperature;BMP_pressure;BME280_temperature;BME280_humidity;BME280_pressure;Samples;Min_cycle;Max_cycle;Signal;HPM_P1;HPM_P2
2021/06/19 00:00:19;;;;;;;4.97;3.87;;;15.10;99.90;;;;;;4973961;28;20202;-78
2021/06/19 00:02:46;;;;;;;5.17;4.43;;;15.10;99.90;;;;;;4973475;28;20234;-78
2021/06/19 00:05:15;;;;;;;6.17;4.00;;;15.20;99.90;;;;;;4973023;28;20254;-78
2021/06/19 00:07:42;;;;;;;5.20;3.90;;;15.20;99.90;;;;;;4971896;28;20207;-78
2021/06/19 00:10:13;;;;;;;5.23;4.60;;;15.20;99.90;;;;;;4973843;28;20762;-77
2021/06/19 00:12:40;;;;;;;5.00;4.20;;;15.10;99.90;;;;;;4973016;28;20209;-78
2021/06/19 00:15:09;;;;;;;6.33;4.60;;;15.10;99.90;;;;;;4973966;28;20677;-78
2021/06/19 00:17:37;;;;;;;5.37;4.63;;;15.10;99.90;;;;;;4973224;28;20213;-78
2021/06/19 00:20:05;;;;;;;6.00;5.40;;;15.10;99.90;;;;;;4972212;28;20297;-77
2021/06/19 00:22:32;;;;;;;7.30;5.40;;;15.10;99.90;;;;;;4973419;28;20289;-78
2021/06/19 00:24:59;;;;;;;7.03;5.07;;;15.20;99.90;;;;;;4973459;28;20305;-78
2021/06/19 00:27:28;;;;;;;6.40;5.17;;;15.20;99.90;;;;;;4973661;28;20281;-78
2021/06/19 00:29:55;;;;;;;6.23;5.33;;;15.20;99.90;;;;;;4972624;28;20741;-78
2021/06/19 00:32:21;;;;;;;7.43;5.83;;;15.20;99.90;;;;;;4973380;28;20229;-78
2021/06/19 00:34:48;;;;;;;6.30;5.40;;;15.10;99.90;;;;;;4972407;28;20246;-78
2021/06/19 00:37:15;;;;;;;9.73;5.90;;;15.10;99.90;;;;;;4954372;29;20277;-78
2021/06/19 00:39:42;;;;;;;7.03;5.10;;;15.10;99.90;;;;;;4955496;28;20692;-78
2021/06/19 00:42:09;;;;;;;6.70;5.73;;;15.20;99.90;;;;;;4973135;28;20198;-78
2021/06/19 00:44:38;;;;;;;6.60;5.90;;;15.10;99.90;;;;;;4973078;28;20198;-78
2021/06/19 00:47:05;;;;;;;7.47;6.03;;;15.10;99.90;;;;;;4971650;28;20210;-78
2021/06/19 00:49:32;;;;;;;7.37;5.70;;;15.20;99.90;;;;;;4967485;28;20285;-78
2021/06/19 00:51:58;;;;;;;7.40;6.30;;;15.10;99.90;;;;;;4960886;28;20254;-78
2021/06/19 00:54:27;;;;;;;7.60;6.33;;;15.10;99.90;;;;;;4961966;28;20572;-78
2021/06/19 00:56:54;;;;;;;7.03;6.33;;;15.10;99.90;;;;;;4958093;28;20206;-78
2021/06/19 00:59:21;;;;;;;8.70;6.27;;;15.10;99.90;;;;;;4957005;28;20298;-78
2021/06/19 01:01:49;;;;;;;7.17;5.60;;;15.10;99.90;;;;;;4953779;29;20210;-78
2021/06/19 01:04:16;;;;;;;7.40;5.73;;;15.10;99.90;;;;;;4953110;29;20266;-78
2021/06/19 01:06:43;;;;;;;6.57;5.30;;;15.00;99.90;;;;;;4969078;28;20655;-78
2021/06/19 01:09:10;;;;;;;8.23;5.90;;;15.00;99.90;;;;;;4972873;28;20230;-78
2021/06/19 01:11:38;;;;;;;6.47;5.43;;;15.10;99.90;;;;;;4962835;28;20253;-78
2021/06/19 01:14:06;;;;;;;7.27;6.27;;;15.00;99.90;;;;;;4958162;28;20234;-78
2021/06/19 01:16:34;;;;;;;6.03;5.43;;;14.90;99.90;;;;;;4973304;28;20261;-77
2021/06/19 01:19:03;;;;;;;7.67;6.40;;;14.90;99.90;;;;;;4953403;28;20203;-78
2021/06/19 01:21:31;;;;;;;6.03;5.40;;;15.00;99.90;;;;;;4960624;28;20234;-78
2021/06/19 01:24:00;;;;;;;6.27;5.67;;;15.00;99.90;;;;;;4953868;29;20249;-78
2021/06/19 01:26:30;;;;;;;6.83;5.87;;;14.90;99.90;;;;;;4963945;28;20270;-78
2021/06/19 01:28:59;;;;;;;7.10;5.97;;;15.00;99.90;;;;;;4960284;28;20237;-78
2021/06/19 01:31:27;;;;;;;8.23;6.20;;;15.00;99.90;;;;;;4965517;28;20233;-77
2021/06/19 01:33:54;;;;;;;7.90;6.90;;;14.90;99.90;;;;;;4972029;28;20684;-78
2021/06/19 01:36:23;;;;;;;8.17;6.90;;;14.90;99.90;;;;;;4972198;28;20237;-78
2021/06/19 01:38:51;;;;;;;7.70;6.60;;;14.90;99.90;;;;;;4972993;28;20607;-78
2021/06/19 01:41:22;;;;;;;8.67;6.87;;;14.90;99.90;;;;;;4973360;28;20294;-78
2021/06/19 01:43:58;;;;;;;9.43;6.87;;;14.90;99.90;;;;;;4972662;28;20869;-78
2021/06/19 01:46:25;;;;;;;8.47;7.03;;;14.80;99.90;;;;;;4956598;28;20226;-78
2021/06/19 01:48:52;;;;;;;9.40;6.80;;;14.80;99.90;;;;;;4972314;28;20246;-78
2021/06/19 01:51:19;;;;;;;9.87;7.67;;;14.80;99.90;;;;;;4972780;28;20324;-78
2021/06/19 01:53:47;;;;;;;9.00;7.97;;;14.80;99.90;;;;;;4972629;28;20293;-78
2021/06/19 01:56:15;;;;;;;9.20;7.70;;;14.80;99.90;;;;;;4972809;28;20205;-78
2021/06/19 01:58:42;;;;;;;7.63;6.87;;;14.80;99.90;;;;;;4962399;28;20227;-78
2021/06/19 02:01:12;;;;;;;10.83;8.00;;;14.80;99.90;;;;;;4977462;28;20248;-78
2021/06/19 02:03:39;;;;;;;10.43;8.57;;;14.80;99.90;;;;;;4982503;28;20206;-78
2021/06/19 02:06:07;;;;;;;11.97;8.77;;;14.80;99.90;;;;;;4971933;28;20253;-78
2021/06/19 02:08:34;;;;;;;9.70;8.47;;;14.80;99.90;;;;;;4955266;28;20262;-78
2021/06/19 02:11:02;;;;;;;10.10;8.63;;;14.80;99.90;;;;;;4972061;28;20286;-78
2021/06/19 02:13:29;;;;;;;13.40;9.13;;;14.80;99.90;;;;;;4971694;28;20234;-78
2021/06/19 02:15:57;;;;;;;11.67;9.23;;;14.90;99.90;;;;;;4969807;28;20203;-78
2021/06/19 02:18:26;;;;;;;9.83;8.77;;;14.90;99.90;;;;;;4970938;28;20234;-78
2021/06/19 02:20:53;;;;;;;9.90;8.20;;;14.90;99.90;;;;;;4968932;28;20289;-78
2021/06/19 02:23:21;;;;;;;12.80;8.70;;;14.90;99.90;;;;;;4953828;28;20203;-78
2021/06/19 02:25:51;;;;;;;10.37;8.20;;;14.90;99.90;;;;;;4970052;28;20261;-78
2021/06/19 02:28:21;;;;;;;12.43;9.43;;;14.90;99.90;;;;;;4972425;28;20210;-78
2021/06/19 02:30:50;;;;;;;10.57;9.03;;;14.90;99.90;;;;;;4972232;28;20610;-78
2021/06/19 02:33:18;;;;;;;11.77;8.73;;;14.80;99.90;;;;;;4963637;28;20225;-78
2021/06/19 02:35:48;;;;;;;11.23;8.50;;;14.70;99.90;;;;;;4971528;28;20241;-78
2021/06/19 02:38:16;;;;;;;10.17;8.20;;;14.80;99.90;;;;;;4971838;28;20290;-78
2021/06/19 02:40:45;;;;;;;9.07;8.17;;;14.70;99.90;;;;;;4973354;28;20230;-78
2021/06/19 02:43:12;;;;;;;9.17;7.73;;;14.70;99.90;;;;;;4974890;28;20649;-78
2021/06/19 02:45:40;;;;;;;8.73;7.83;;;14.70;99.90;;;;;;4975251;28;20313;-78
2021/06/19 02:48:08;;;;;;;9.73;7.53;;;14.60;99.90;;;;;;4975295;28;20850;-78
2021/06/19 02:50:36;;;;;;;7.63;6.83;;;14.60;99.90;;;;;;4970756;28;20330;-78
2021/06/19 02:53:05;;;;;;;8.57;7.07;;;14.70;99.90;;;;;;4975503;28;20309;-78
2021/06/19 02:55:35;;;;;;;8.43;7.20;;;14.60;99.90;;;;;;4975276;28;20704;-77
2021/06/19 02:58:02;;;;;;;8.83;7.40;;;14.60;99.90;;;;;;4975080;28;20234;-78
2021/06/19 03:00:29;;;;;;;8.27;7.20;;;14.50;99.90;;;;;;4975261;28;20293;-78
2021/06/19 03:02:57;;;;;;;8.07;7.23;;;14.50;99.90;;;;;;4972611;28;20202;-78
2021/06/19 03:05:26;;;;;;;8.60;7.57;;;14.50;99.90;;;;;;4958611;28;20575;-78
2021/06/19 03:07:54;;;;;;;8.10;7.17;;;14.50;99.90;;;;;;4963954;28;20298;-78
2021/06/19 03:10:24;;;;;;;8.23;6.87;;;14.40;99.90;;;;;;4975307;28;20238;-78
2021/06/19 03:12:51;;;;;;;8.30;7.50;;;14.40;99.90;;;;;;4975341;28;20294;-78
2021/06/19 03:15:18;;;;;;;9.40;7.57;;;14.40;99.90;;;;;;4974904;28;20579;-78
2021/06/19 03:17:45;;;;;;;8.53;7.07;;;14.40;99.90;;;;;;4975694;28;20269;-78
2021/06/19 03:20:15;;;;;;;8.77;7.40;;;14.40;99.90;;;;;;4975095;28;20290;-78
2021/06/19 03:22:44;;;;;;;8.10;7.03;;;14.40;99.90;;;;;;4971990;28;20282;-78
2021/06/19 03:25:13;;;;;;;8.53;7.10;;;14.40;99.90;;;;;;4955480;29;20293;-78
2021/06/19 03:27:42;;;;;;;7.30;6.60;;;14.40;99.90;;;;;;4974170;28;20241;-78
2021/06/19 03:30:11;;;;;;;7.60;6.80;;;14.50;99.90;;;;;;4974458;28;20207;-78
2021/06/19 03:32:39;;;;;;;7.50;6.57;;;14.40;99.90;;;;;;4965737;28;20198;-78
2021/06/19 03:35:08;;;;;;;8.17;6.43;;;14.40;99.90;;;;;;4973979;28;20242;-77
2021/06/19 03:37:35;;;;;;;6.77;6.17;;;14.40;99.90;;;;;;4964151;28;20199;-78
2021/06/19 03:40:03;;;;;;;7.43;6.63;;;14.40;99.90;;;;;;4955690;29;20249;-78
2021/06/19 03:42:30;;;;;;;7.80;7.00;;;14.40;99.90;;;;;;4957065;28;20654;-78
2021/06/19 03:44:59;;;;;;;10.53;8.17;;;14.30;99.90;;;;;;4974983;28;20290;-78
2021/06/19 03:47:26;;;;;;;8.90;8.00;;;14.40;99.90;;;;;;4974701;28;20261;-78
2021/06/19 03:49:53;;;;;;;8.87;7.97;;;14.30;99.90;;;;;;4974585;28;20250;-78
2021/06/19 03:52:20;;;;;;;8.30;7.50;;;14.40;99.90;;;;;;4974520;28;20325;-78
2021/06/19 03:54:48;;;;;;;8.87;7.97;;;14.40;99.90;;;;;;4974605;28;20759;-78
2021/06/19 03:57:27;;;;;;;8.73;7.83;;;14.30;99.90;;;;;;4973217;28;20206;-78
2021/06/19 03:59:54;;;;;;;7.77;6.97;;;14.30;99.90;;;;;;4955225;29;20243;-78
2021/06/19 04:02:23;;;;;;;8.77;7.87;;;14.30;99.90;;;;;;4959071;28;20234;-78
2021/06/19 04:04:51;;;;;;;9.27;8.37;;;14.30;99.90;;;;;;4957025;28;20257;-78
2021/06/19 04:07:18;;;;;;;9.93;8.33;;;14.30;99.90;;;;;;4966414;28;20312;-78
2021/06/19 04:09:47;;;;;;;9.27;8.37;;;14.30;99.90;;;;;;4964254;28;20231;-78
2021/06/19 04:12:15;;;;;;;10.47;9.47;;;14.30;99.90;;;;;;4971306;28;20241;-78
2021/06/19 04:14:42;;;;;;;10.27;8.60;;;14.20;99.90;;;;;;4973466;28;20198;-78
2021/06/19 04:17:10;;;;;;;11.13;9.20;;;14.20;99.90;;;;;;4974120;28;20301;-78
2021/06/19 04:19:38;;;;;;;11.53;9.30;;;14.30;99.90;;;;;;4970888;28;20704;-78
2021/06/19 04:22:06;;;;;;;10.97;9.77;;;14.20;99.90;;;;;;4955111;29;20258;-78
2021/06/19 04:24:33;;;;;;;11.70;9.63;;;14.30;99.90;;;;;;4954514;29;20282;-78
2021/06/19 04:27:02;;;;;;;11.13;10.03;;;14.30;99.90;;;;;;4954088;29;20294;-78
2021/06/19 04:29:30;;;;;;;11.10;9.67;;;14.30;99.90;;;;;;4957064;28;20249;-78
2021/06/19 04:31:58;;;;;;;11.67;10.47;;;14.30;99.90;;;;;;4960426;28;20210;-78
2021/06/19 04:34:25;;;;;;;12.03;10.63;;;14.30;99.90;;;;;;4969210;28;20237;-78
2021/06/19 04:36:54;;;;;;;12.60;10.20;;;14.30;99.90;;;;;;4969392;28;20237;-78
2021/06/19 04:39:22;;;;;;;11.67;10.47;;;14.30;99.90;;;;;;4972779;28;20289;-78
2021/06/19 04:41:53;;;;;;;11.13;9.90;;;14.40;99.90;;;;;;4973175;28;20245;-78
2021/06/19 04:44:28;;;;;;;12.17;10.43;;;14.40;99.90;;;;;;4967217;28;20692;-78
2021/06/19 04:46:55;;;;;;;12.47;10.67;;;14.40;99.90;;;;;;4972403;28;20221;-78
2021/06/19 04:49:22;;;;;;;12.57;11.27;;;14.40;99.90;;;;;;4971901;28;20285;-78
2021/06/19 04:51:49;;;;;;;12.73;11.43;;;14.50;99.90;;;;;;4972763;28;20325;-78
2021/06/19 04:54:18;;;;;;;18.20;12.43;;;14.50;99.90;;;;;;4954232;28;20234;-78
2021/06/19 04:56:45;;;;;;;15.40;12.53;;;14.50;99.90;;;;;;4953643;29;20211;-78
2021/06/19 04:59:12;;;;;;;19.80;17.03;;;14.50;99.90;;;;;;4961771;28;20237;-78
2021/06/19 05:01:39;;;;;;;21.87;18.47;;;14.50;99.90;;;;;;4973356;28;20249;-78
2021/06/19 05:04:06;;;;;;;22.27;18.30;;;14.60;99.90;;;;;;4960607;28;20286;-78
2021/06/19 05:06:35;;;;;;;22.50;17.87;;;14.60;99.90;;;;;;4954288;28;20227;-78
2021/06/19 05:09:02;;;;;;;18.63;15.77;;;14.60;99.90;;;;;;4956001;28;20209;-78
2021/06/19 05:11:31;;;;;;;16.83;14.30;;;14.60;99.90;;;;;;4973213;28;20206;-78
2021/06/19 05:13:58;;;;;;;16.70;12.37;;;14.60;99.90;;;;;;4973148;28;20202;-78
2021/06/19 05:16:25;;;;;;;16.33;12.30;;;14.60;99.90;;;;;;4973317;28;20237;-78
2021/06/19 05:18:52;;;;;;;14.07;11.43;;;14.70;99.90;;;;;;4972916;28;20248;-78
2021/06/19 05:21:19;;;;;;;12.20;10.83;;;14.70;99.90;;;;;;4972545;28;20238;-78
2021/06/19 05:23:45;;;;;;;13.50;11.33;;;14.70;99.90;;;;;;4972557;28;20294;-78
2021/06/19 05:26:12;;;;;;;13.30;10.93;;;14.80;99.90;;;;;;4972539;28;20313;-78
2021/06/19 05:28:41;;;;;;;12.20;10.33;;;14.80;99.90;;;;;;4972491;28;20226;-78
2021/06/19 05:31:08;;;;;;;12.20;10.90;;;14.80;99.90;;;;;;4972511;28;20233;-78
2021/06/19 05:33:35;;;;;;;15.43;11.13;;;14.80;99.90;;;;;;4972231;28;20293;-78
2021/06/19 05:36:02;;;;;;;13.00;11.17;;;14.90;99.90;;;;;;4962658;28;20285;-78
2021/06/19 05:38:29;;;;;;;11.93;10.70;;;14.80;99.90;;;;;;4969275;28;20290;-78
2021/06/19 05:40:56;;;;;;;13.90;10.90;;;14.80;99.90;;;;;;4959262;28;20286;-78
2021/06/19 05:43:23;;;;;;;13.33;11.23;;;14.90;99.90;;;;;;4972883;28;20293;-78
2021/06/19 05:45:52;;;;;;;12.43;10.27;;;14.90;99.90;;;;;;4972478;28;20646;-78
2021/06/19 05:48:19;;;;;;;12.30;9.73;;;14.90;99.90;;;;;;4972749;28;20245;-78
2021/06/19 05:50:46;;;;;;;13.07;10.67;;;14.90;99.90;;;;;;4972018;28;20795;-78
2021/06/19 05:53:13;;;;;;;13.30;9.80;;;15.00;99.90;;;;;;4959206;28;20210;-78
2021/06/19 05:55:40;;;;;;;12.87;9.93;;;15.00;99.90;;;;;;4936584;29;20290;-78
2021/06/19 05:58:08;;;;;;;13.20;10.23;;;15.00;99.90;;;;;;4953313;29;20230;-78
2021/06/19 06:00:35;;;;;;;12.27;10.03;;;14.90;99.90;;;;;;4960114;28;20289;-78
2021/06/19 06:03:04;;;;;;;13.00;10.67;;;15.00;99.90;;;;;;4946038;29;20207;-78
2021/06/19 06:05:31;;;;;;;11.73;10.37;;;15.00;99.90;;;;;;4969066;28;20237;-78
2021/06/19 06:08:00;;;;;;;13.67;10.63;;;15.00;99.90;;;;;;4967179;28;20310;-78
2021/06/19 06:10:27;;;;;;;12.60;10.30;;;15.00;99.90;;;;;;4973264;28;20294;-78
2021/06/19 06:12:54;;;;;;;12.10;9.97;;;15.00;99.90;;;;;;4940403;29;20237;-78
2021/06/19 06:15:21;;;;;;;12.20;9.97;;;15.00;99.90;;;;;;4965568;28;20209;-78
2021/06/19 06:17:48;;;;;;;11.50;9.50;;;15.00;99.90;;;;;;4963872;28;20226;-78
2021/06/19 06:20:17;;;;;;;12.77;9.77;;;15.10;99.90;;;;;;4956792;28;20564;-78
2021/06/19 06:22:44;;;;;;;11.77;9.93;;;15.20;99.90;;;;;;4957190;28;20237;-80
2021/06/19 06:25:12;;;;;;;13.23;9.50;;;15.30;99.90;;;;;;4964858;28;20301;-79
2021/06/19 06:27:39;;;;;;;11.43;10.07;;;15.20;99.90;;;;;;4972157;28;20285;-81
2021/06/19 06:30:07;;;;;;;11.40;9.23;;;15.20;99.90;;;;;;4960608;28;20258;-80
2021/06/19 06:32:36;;;;;;;11.93;9.33;;;15.20;99.90;;;;;;4969914;28;20230;-80
2021/06/19 06:35:04;;;;;;;11.17;9.63;;;15.30;99.90;;;;;;4968656;28;20305;-79
2021/06/19 06:37:33;;;;;;;11.30;9.90;;;15.30;99.90;;;;;;4956298;29;20238;-79
2021/06/19 06:40:00;;;;;;;11.07;9.57;;;15.30;99.90;;;;;;4956958;29;20290;-80
2021/06/19 06:42:26;;;;;;;10.83;9.57;;;15.40;99.90;;;;;;4965417;28;20238;-80
2021/06/19 06:44:53;;;;;;;11.93;9.67;;;15.40;99.90;;;;;;4975465;28;20206;-80
2021/06/19 06:47:20;;;;;;;12.27;9.70;;;15.40;99.90;;;;;;4974921;28;20219;-80
2021/06/19 06:49:47;;;;;;;11.47;10.27;;;15.50;99.90;;;;;;4974579;28;20281;-80
2021/06/19 06:52:14;;;;;;;12.60;11.00;;;15.50;99.90;;;;;;4971496;28;20721;-80
2021/06/19 06:54:43;;;;;;;11.87;10.03;;;15.60;99.90;;;;;;4974383;28;20210;-80
2021/06/19 06:57:11;;;;;;;12.17;10.13;;;15.60;99.90;;;;;;4968116;28;20230;-80
2021/06/19 06:59:39;;;;;;;11.17;9.03;;;15.70;99.90;;;;;;4962539;28;20234;-79
2021/06/19 07:02:06;;;;;;;9.63;8.63;;;15.70;99.90;;;;;;4974436;28;20202;-80
2021/06/19 07:04:33;;;;;;;9.67;8.50;;;15.60;99.90;;;;;;4974456;28;20234;-80
2021/06/19 07:07:00;;;;;;;10.60;8.60;;;15.60;99.90;;;;;;4960732;28;20309;-80
2021/06/19 07:09:27;;;;;;;10.37;8.60;;;15.70;99.90;;;;;;4974669;28;20234;-79
2021/06/19 07:11:55;;;;;;;10.10;9.07;;;15.70;99.90;;;;;;4974721;28;20230;-79
2021/06/19 07:14:22;;;;;;;12.67;9.30;;;15.70;99.90;;;;;;4960549;28;20707;-79
2021/06/19 07:16:49;;;;;;;11.63;9.13;;;15.70;99.90;;;;;;4956636;28;20235;-80
2021/06/19 07:19:17;;;;;;;11.80;8.90;;;15.80;99.90;;;;;;4970977;28;20285;-80
2021/06/19 07:21:44;;;;;;;8.60;7.73;;;16.00;99.90;;;;;;4964728;28;20207;-80
2021/06/19 07:24:11;;;;;;;11.13;7.97;;;16.20;99.90;;;;;;4966528;28;20226;-80
2021/06/19 07:26:44;;;;;;;10.63;7.90;;;16.50;99.90;;;;;;4971244;28;20593;-80
2021/06/19 07:29:12;;;;;;;9.67;8.07;;;16.60;99.90;;;;;;4962741;28;20235;-80
2021/06/19 07:31:39;;;;;;;8.50;7.13;;;16.80;99.90;;;;;;4969358;28;20234;-81
2021/06/19 07:34:06;;;;;;;9.43;6.80;;;17.10;99.90;;;;;;4962105;28;20242;-85
2021/06/19 07:36:33;;;;;;;7.37;6.63;;;17.30;99.90;;;;;;4972228;28;20233;-84
2021/06/19 07:39:00;;;;;;;9.65;7.45;;;17.30;99.90;;;;;;4973984;28;20198;-84
2021/06/19 07:41:27;;;;;;;7.73;6.97;;;17.30;99.90;;;;;;4971654;28;20355;-85
2021/06/19 07:43:54;;;;;;;7.87;6.40;;;17.40;99.90;;;;;;4951399;28;20314;-84
2021/06/19 07:46:23;;;;;;;8.40;6.60;;;17.50;99.90;;;;;;4969689;28;20207;-85
2021/06/19 07:48:50;;;;;;;8.45;7.10;;;17.70;99.90;;;;;;4970071;28;20222;-85
2021/06/19 07:51:17;;;;;;;8.02;6.15;;;17.90;99.90;;;;;;4972669;28;20718;-85
2021/06/19 07:53:44;;;;;;;8.02;6.43;;;18.10;99.90;;;;;;4963822;28;20230;-84
2021/06/19 07:56:11;;;;;;;7.30;6.60;;;18.20;99.90;;;;;;4967137;28;20238;-84
2021/06/19 07:58:38;;;;;;;8.75;6.65;;;18.10;99.90;;;;;;4974866;28;20715;-84
2021/06/19 08:01:05;;;;;;;6.93;6.22;;;18.00;99.90;;;;;;4974911;28;20699;-85
2021/06/19 08:03:33;;;;;;;8.00;6.75;;;18.60;99.90;;;;;;4953735;28;20637;-85
2021/06/19 08:06:00;;;;;;;7.38;6.63;;;18.30;99.90;;;;;;4966825;28;20299;-85
2021/06/19 08:08:27;;;;;;;8.63;6.68;;;18.10;99.90;;;;;;4960409;28;21030;-84
2021/06/19 08:10:54;;;;;;;8.75;6.85;;;18.30;99.90;;;;;;4970312;28;20226;-86
2021/06/19 08:13:21;;;;;;;8.25;6.43;;;18.10;99.90;;;;;;4963126;28;20289;-86
2021/06/19 08:15:48;;;;;;;6.85;6.15;;;18.40;99.90;;;;;;4966868;28;20210;-86
2021/06/19 08:18:15;;;;;;;7.50;6.28;;;19.00;99.90;;;;;;4969340;28;20261;-86
2021/06/19 08:20:43;;;;;;;6.88;6.18;;;19.20;99.90;;;;;;4979096;28;20245;-86
2021/06/19 08:23:10;;;;;;;6.88;6.18;;;18.50;99.90;;;;;;4968572;28;20211;-85
2021/06/19 08:25:38;;;;;;;7.03;6.32;;;18.40;99.90;;;;;;4976922;28;20622;-86
2021/06/19 08:28:06;;;;;;;7.82;6.13;;;18.50;99.90;;;;;;4967780;28;20215;-86
2021/06/19 08:30:33;;;;;;;8.77;6.65;;;18.40;99.90;;;;;;4975350;28;20200;-86
2021/06/19 08:33:00;;;;;;;6.55;5.40;;;18.50;99.90;;;;;;4971118;28;20270;-86
2021/06/19 08:35:27;;;;;;;7.60;5.75;;;19.00;99.90;;;;;;4940999;28;20199;-85
2021/06/19 08:37:55;;;;;;;7.38;6.35;;;18.70;99.90;;;;;;4961586;28;20203;-86
2021/06/19 08:40:22;;;;;;;7.45;6.65;;;18.30;99.90;;;;;;4975773;28;20236;-85
2021/06/19 08:42:50;;;;;;;7.63;6.82;;;18.00;99.90;;;;;;4974399;28;20230;-85
2021/06/19 08:45:17;;;;;;;7.10;6.40;;;18.60;99.90;;;;;;4971997;28;20288;-85
2021/06/19 08:47:46;;;;;;;7.25;6.55;;;18.60;99.90;;;;;;4968136;28;20271;-85
2021/06/19 08:50:15;;;;;;;6.85;6.15;;;18.90;99.90;;;;;;4971509;28;20284;-84
2021/06/19 08:52:44;;;;;;;7.47;5.75;;;19.40;99.90;;;;;;4970832;28;20293;-85
2021/06/19 08:55:15;;;;;;;6.72;6.10;;;19.70;99.90;;;;;;4965044;28;20277;-85
2021/06/19 08:57:42;;;;;;;6.85;6.15;;;19.50;99.90;;;;;;4975329;28;20234;-85
2021/06/19 09:00:11;;;;;;;7.15;6.10;;;19.10;99.90;;;;;;4972952;28;20231;-85
2021/06/19 09:02:38;;;;;;;7.85;7.03;;;19.40;99.90;;;;;;4960573;28;20203;-85
2021/06/19 09:05:08;;;;;;;7.80;6.97;;;18.90;99.90;;;;;;4964664;28;20246;-85
2021/06/19 09:07:41;;;;;;;8.52;6.45;;;19.00;99.90;;;;;;4971509;28;20234;-85
2021/06/19 09:10:23;;;;;;;9.15;6.20;;;18.90;99.90;;;;;;4955382;28;20202;-85
2021/06/19 09:12:59;;;;;;;7.07;6.38;;;19.00;99.90;;;;;;4966937;28;20199;-85
2021/06/19 09:15:27;;;;;;;7.80;6.70;;;19.10;99.90;;;;;;4964503;28;20704;-85
2021/06/19 09:18:21;;;;;;;9.48;6.68;;;19.20;99.90;;;;;;4975446;28;20201;-85
2021/06/19 09:20:52;;;;;;;7.95;6.43;;;19.70;99.90;;;;;;4958843;28;20257;-85
2021/06/19 09:23:28;;;;;;;7.35;6.57;;;19.80;99.90;;;;;;4963546;28;20206;-85
2021/06/19 09:26:22;;;;;;;6.82;5.97;;;20.20;99.90;;;;;;4972676;28;20288;-86
2021/06/19 09:29:07;;;;;;;5.40;5.00;;;20.10;99.90;;;;;;4936307;28;20648;-78
2021/06/19 09:31:37;;;;;;;4.78;4.38;;;20.90;99.90;;;;;;4968003;28;20202;-78
2021/06/19 09:34:05;;;;;;;5.63;5.15;;;21.50;99.90;;;;;;4965091;28;20213;-78
2021/06/19 09:36:44;;;;;;;6.43;5.82;;;20.60;99.90;;;;;;4960154;28;20579;-78
2021/06/19 09:39:13;;;;;;;6.32;5.57;;;20.40;99.90;;;;;;4960305;28;20282;-79
2021/06/19 09:41:43;;;;;;;6.55;5.93;;;20.60;99.90;;;;;;4962087;28;20233;-79
2021/06/19 09:44:10;;;;;;;8.00;7.20;;;20.90;99.90;;;;;;4975409;28;20289;-78
2021/06/19 09:46:37;;;;;;;8.45;7.65;;;21.30;99.90;;;;;;4975178;28;20233;-82
2021/06/19 09:49:13;;;;;;;7.88;7.18;;;21.10;99.90;;;;;;4974263;28;20317;-81
2021/06/19 09:51:46;;;;;;;8.73;7.82;;;21.10;99.90;;;;;;4978100;28;20261;-81
2021/06/19 09:54:13;;;;;;;9.20;8.25;;;21.30;99.90;;;;;;4974394;28;20650;-81
2021/06/19 09:56:53;;;;;;;11.07;8.38;;;21.50;99.90;;;;;;4968306;28;20289;-81
2021/06/19 09:59:25;;;;;;;10.80;9.57;;;21.50;99.90;;;;;;4968083;28;20700;-79
2021/06/19 10:01:52;;;;;;;10.85;9.38;;;21.00;99.90;;;;;;4970893;28;20203;-79
2021/06/19 10:04:21;;;;;;;10.82;9.60;;;20.50;99.90;;;;;;4970281;28;20207;-78
2021/06/19 10:06:49;;;;;;;13.25;10.68;;;20.30;99.90;;;;;;4966829;28;20241;-79
2021/06/19 10:09:17;;;;;;;11.70;10.35;;;20.80;99.90;;;;;;4962533;28;20254;-78
2021/06/19 10:11:46;;;;;;;12.40;11.20;;;21.00;99.90;;;;;;4966735;28;20331;-78
2021/06/19 10:14:19;;;;;;;11.82;10.60;;;20.50;99.90;;;;;;4968731;28;20234;-78
2021/06/19 10:16:49;;;;;;;11.48;10.20;;;20.70;99.90;;;;;;4959067;28;20198;-78
2021/06/19 10:19:20;;;;;;;12.82;10.95;;;20.80;99.90;;;;;;4970420;28;20609;-78
2021/06/19 10:21:50;;;;;;;11.55;10.45;;;20.60;99.90;;;;;;4973984;28;20206;-78
2021/06/19 10:24:17;;;;;;;12.35;10.52;;;20.50;99.90;;;;;;4961759;28;20199;-78
2021/06/19 10:26:44;;;;;;;11.57;10.38;;;20.40;99.90;;;;;;4960000;28;20691;-78
2021/06/19 10:29:13;;;;;;;11.95;10.35;;;20.20;99.90;;;;;;4968088;28;20258;-79
2021/06/19 10:31:44;;;;;;;11.55;10.45;;;20.10;99.90;;;;;;4966896;28;20224;-78
2021/06/19 10:34:24;;;;;;;12.18;10.98;;;19.90;99.90;;;;;;4966765;28;20230;-78
2021/06/19 10:36:52;;;;;;;12.50;11.30;;;19.80;99.90;;;;;;4962104;28;20275;-78
2021/06/19 10:39:33;;;;;;;13.85;10.95;;;20.40;99.90;;;;;;4972945;28;20664;-78
2021/06/19 10:42:00;;;;;;;11.75;10.52;;;20.40;99.90;;;;;;4971833;28;20286;-79
2021/06/19 10:44:49;;;;;;;14.23;11.18;;;20.30;99.90;;;;;;4966667;28;20231;-79
2021/06/19 10:47:18;;;;;;;12.02;10.60;;;20.40;99.90;;;;;;4970386;28;20649;-78
2021/06/19 10:49:45;;;;;;;12.55;10.25;;;20.90;99.90;;;;;;4970616;28;20265;-79
2021/06/19 10:52:28;;;;;;;10.18;9.18;;;20.60;99.90;;;;;;4971284;28;20321;-79
2021/06/19 10:55:26;;;;;;;11.00;9.90;;;20.60;99.90;;;;;;4958312;28;20235;-78
2021/06/19 10:58:09;;;;;;;13.27;11.68;;;20.40;99.90;;;;;;4963568;28;20218;-79
2021/06/19 11:00:44;;;;;;;12.27;10.43;;;20.00;99.90;;;;;;4964121;28;20207;-77
2021/06/19 11:03:13;;;;;;;12.75;11.10;;;19.90;99.90;;;;;;4963554;28;20680;-78
2021/06/19 11:05:57;;;;;;;12.63;11.32;;;19.90;99.90;;;;;;4962979;28;20282;-79
2021/06/19 11:08:24;;;;;;;13.85;11.90;;;19.50;99.90;;;;;;4973814;28;20250;-77
2021/06/19 11:11:01;;;;;;;13.30;10.43;;;19.30;99.90;;;;;;4966159;28;20231;-78
2021/06/19 11:13:47;;;;;;;12.57;11.27;;;19.40;99.90;;;;;;4971973;28;20691;-77
2021/06/19 11:16:44;;;;;;;13.23;11.38;;;19.40;99.90;;;;;;4962281;28;20305;-78
2021/06/19 11:19:32;;;;;;;14.55;11.55;;;19.30;99.90;;;;;;4953487;28;20201;-78
2021/06/19 11:22:27;;;;;;;14.73;12.13;;;19.10;99.90;;;;;;4958143;28;20206;-78
2021/06/19 11:25:13;;;;;;;13.80;12.10;;;19.10;99.90;;;;;;4969654;28;20298;-78
2021/06/19 11:27:52;;;;;;;14.13;12.63;;;19.20;99.90;;;;;;4965406;28;20294;-78
2021/06/19 11:30:47;;;;;;;17.75;13.05;;;19.30;99.90;;;;;;4968528;28;20198;-78
2021/06/19 11:33:49;;;;;;;17.08;13.20;;;19.40;99.90;;;;;;4966678;28;20379;-78
2021/06/19 11:36:57;;;;;;;18.35;15.80;;;19.40;99.90;;;;;;4969560;28;20310;-78
2021/06/19 11:39:33;;;;;;;17.92;14.38;;;19.30;99.90;;;;;;4907817;29;20335;-79
2021/06/19 11:42:01;;;;;;;18.00;15.45;;;19.30;99.90;;;;;;4906114;29;20206;-79
2021/06/19 11:44:34;;;;;;;16.67;14.95;;;19.30;99.90;;;;;;4896077;29;20228;-80
2021/06/19 11:47:04;;;;;;;16.40;14.68;;;19.20;99.90;;;;;;4898880;29;20236;-80
2021/06/19 11:49:37;;;;;;;18.70;15.15;;;19.10;99.90;;;;;;4897938;29;20650;-79
2021/06/19 11:52:09;;;;;;;16.85;15.05;;;19.00;99.90;;;;;;4911562;29;20319;-79
2021/06/19 11:54:42;;;;;;;15.70;13.93;;;18.80;99.90;;;;;;4914679;29;20240;-78
2021/06/19 11:57:10;;;;;;;16.20;13.73;;;18.70;99.90;;;;;;4897447;29;20232;-79
2021/06/19 11:59:37;;;;;;;16.33;14.02;;;18.60;99.90;;;;;;4904638;29;20287;-78
2021/06/19 12:02:13;;;;;;;16.25;14.55;;;18.60;99.90;;;;;;4907023;29;20299;-79
2021/06/19 12:04:40;;;;;;;15.88;14.20;;;18.70;99.90;;;;;;4914652;29;20252;-79
2021/06/19 12:07:08;;;;;;;15.88;14.23;;;18.60;99.90;;;;;;4914353;29;20239;-79
2021/06/19 12:09:36;;;;;;;20.48;15.68;;;18.60;99.90;;;;;;4914299;29;20319;-79
2021/06/19 12:12:05;;;;;;;17.08;14.90;;;18.60;99.90;;;;;;4899646;29;20209;-78
2021/06/19 12:14:33;;;;;;;17.15;15.35;;;18.60;99.90;;;;;;4915007;29;20199;-79
2021/06/19 12:17:02;;;;;;;16.50;14.32;;;18.60;99.90;;;;;;4958346;28;20257;-79
2021/06/19 12:19:30;;;;;;;17.48;14.63;;;18.60;99.90;;;;;;4974045;28;20290;-79
2021/06/19 12:21:59;;;;;;;16.83;14.65;;;18.70;99.90;;;;;;4968869;28;20231;-78
2021/06/19 12:24:33;;;;;;;17.90;14.63;;;18.70;99.90;;;;;;4970869;28;20206;-79
2021/06/19 12:27:09;;;;;;;19.05;14.43;;;18.60;99.90;;;;;;4974167;28;20289;-78
2021/06/19 12:29:39;;;;;;;17.45;14.32;;;18.70;99.90;;;;;;4972877;28;20226;-79
2021/06/19 12:32:23;;;;;;;16.58;14.73;;;18.60;99.90;;;;;;4973859;28;20684;-79
2021/06/19 12:34:54;;;;;;;17.40;14.70;;;18.50;99.90;;;;;;4974035;28;20245;-79
2021/06/19 12:37:26;;;;;;;17.42;14.80;;;18.50;99.90;;;;;;4973424;28;20203;-80
2021/06/19 12:39:55;;;;;;;17.60;15.35;;;18.50;99.90;;;;;;4973501;28;20194;-79
2021/06/19 12:42:43;;;;;;;18.92;15.57;;;18.50;99.90;;;;;;4973412;28;20245;-79
2021/06/19 12:45:13;;;;;;;18.27;16.35;;;18.40;99.90;;;;;;4973579;28;20202;-79
2021/06/19 12:47:43;;;;;;;17.67;15.63;;;18.40;99.90;;;;;;4973645;28;20206;-79
2021/06/19 12:50:12;;;;;;;18.30;15.73;;;18.20;99.90;;;;;;4962896;28;20266;-79